Time,TemperatureF,DewpointF,PressureIn,WindDirection,WindDirectionDegrees,WindSpeedMPH,WindSpeedGustMPH,Humidity,HourlyPrecipIn,Conditions,Clouds,dailyrainin,SoftwareType,DateUTC
2013-05-10 00:01:00,59.2,51.6,29.99,WNW,298,0.0,0.0,76,0.00,RA,,0.00,WeatherDisplay:10.37,2013-05-10 04:01:00,
2013-05-10 00:02:00,59.2,51.6,29.99,WNW,298,0.0,0.0,76,0.00,RA,,0.00,WeatherDisplay:10.37,2013-05-10 04:02:00,
2013-05-10 00:07:00,59.1,51.5,29.99,WNW,298,0.0,0.0,76,0.00,RA,,0.00,WeatherDisplay:10.37,2013-05-10 04:07:00,
2013-05-10 00:12:00,59.1,51.9,29.99,WNW,298,0.0,0.0,77,0.00,CLR,,0.00,WeatherDisplay:10.37,2013-05-10 04:12:00,
2013-05-10 00:17:00,59.0,52.5,29.99,WNW,298,0.0,0.0,79,0.00,CLR,,0.00,WeatherDisplay:10.37,2013-05-10 04:17:00,
2013-05-10 00:22:00,58.6,52.1,29.99,WNW,298,0.0,0.0,79,0.00,CLR,,0.00,WeatherDisplay:10.37,2013-05-10 04:22:00,
2013-05-10 00:27:00,58.3,52.2,29.99,WNW,298,0.0,0.0,80,0.00,CLR,,0.00,WeatherDisplay:10.37,2013-05-10 04:27:00,
2013-05-10 00:32:00,58.0,52.2,30.00,WNW,298,0.0,0.0,81,0.00,CLR,,0.00,WeatherDisplay:10.37,2013-05-10 04:32:00,
2013-05-10 00:37:00,57.5,51.7,30.00,WNW,298,0.0,0.0,81,0.00,CLR,,0.00,WeatherDisplay:10.37,2013-05-10 04:37:00,
2013-05-10 01:49:00,54.4,50.9,30.00,WNW,298,0.0,0.0,88,0.00,CLR,,0.00,WeatherDisplay:10.37,2013-05-10 05:49:00,
2013-05-10 02:01:00,54.2,51.0,30.00,WNW,298,0.0,0.0,89,0.00,CLR,,0.00,WeatherDisplay:10.37,2013-05-10 06:01:00,
2013-05-10 02:06:00,54.2,51.0,29.99,WNW,298,0.0,0.0,89,0.00,CLR,,0.00,WeatherDisplay:10.37,2013-05-10 06:06:00,
2013-05-10 02:11:00,54.1,50.9,29.99,WNW,298,0.0,0.0,89,0.00,CLR,,0.00,WeatherDisplay:10.37,2013-05-10 06:11:00,
2013-05-10 02:16:00,54.0,50.8,29.99,WNW,298,0.0,0.0,89,0.00,CLR,,0.00,WeatherDisplay:10.37,2013-05-10 06:16:00,
2013-05-10 02:21:00,54.0,50.8,29.99,WNW,298,0.0,0.0,89,0.00,CLR,,0.00,WeatherDisplay:10.37,2013-05-10 06:21:00,
2013-05-10 02:27:00,53.8,50.9,29.99,WNW,298,0.0,0.0,90,0.00,CLR,,0.00,WeatherDisplay:10.37,2013-05-10 06:27:00,
2013-05-10 02:32:00,53.7,50.8,29.99,WNW,298,0.0,0.0,90,0.00,CLR,,0.00,WeatherDisplay:10.37,2013-05-10 06:32:00,
2013-05-10 02:37:00,53.6,50.7,29.99,WNW,298,0.0,0.0,90,0.00,CLR,,0.00,WeatherDisplay:10.37,2013-05-10 06:37:00,
2013-05-10 02:42:00,53.5,50.9,29.99,WNW,298,0.0,0.0,91,0.00,CLR,,0.00,WeatherDisplay:10.37,2013-05-10 06:42:00,
2013-05-10 02:47:00,53.5,50.9,29.99,WNW,298,0.0,0.0,91,0.00,CLR,,0.00,WeatherDisplay:10.37,2013-05-10 06:47:00,
2013-05-10 02:52:00,53.6,51.0,29.99,WNW,298,0.0,0.0,91,0.00,CLR,,0.00,WeatherDisplay:10.37,2013-05-10 06:52:00,
2013-05-10 02:57:00,53.7,50.8,29.99,WNW,298,0.0,0.0,90,0.00,CLR,,0.00,WeatherDisplay:10.37,2013-05-10 06:57:00,
2013-05-10 03:02:00,53.9,51.0,29.99,WNW,298,0.0,0.0,90,0.00,CLR,,0.00,WeatherDisplay:10.37,2013-05-10 07:02:00,
2013-05-10 03:07:00,54.0,50.8,29.99,WNW,298,0.0,0.0,89,0.00,CLR,,0.00,WeatherDisplay:10.37,2013-05-10 07:07:00,
2013-05-10 03:12:00,54.0,50.8,29.99,WNW,298,0.0,0.0,89,0.00,CLR,,0.00,WeatherDisplay:10.37,2013-05-10 07:12:00,
2013-05-10 03:17:00,53.9,50.7,29.99,WNW,298,0.0,0.0,89,0.00,CLR,,0.00,WeatherDisplay:10.37,2013-05-10 07:17:00,
2013-05-10 03:22:00,53.7,50.8,29.99,SSW,199,2.3,2.3,90,0.00,CLR,,0.00,WeatherDisplay:10.37,2013-05-10 07:22:00,
2013-05-10 03:27:00,53.8,50.6,29.99,SSE,162,0.0,0.0,89,0.00,CLR,,0.00,WeatherDisplay:10.37,2013-05-10 07:27:00,
2013-05-10 03:32:00,53.8,50.6,29.99,SSE,162,0.0,0.0,89,0.00,CLR,,0.00,WeatherDisplay:10.37,2013-05-10 07:32:00,
2013-05-10 03:37:00,54.0,50.8,29.99,SSE,162,0.0,0.0,89,0.00,CLR,,0.00,WeatherDisplay:10.37,2013-05-10 07:37:00,
2013-05-10 03:42:00,54.2,50.7,29.99,SSE,162,0.0,0.0,88,0.00,CLR,,0.00,WeatherDisplay:10.37,2013-05-10 07:42:00,
2013-05-10 03:47:00,54.2,50.7,29.99,SSE,162,0.0,0.0,88,0.00,CLR,,0.00,WeatherDisplay:10.37,2013-05-10 07:47:00,
2013-05-10 03:52:00,53.9,50.7,29.99,SSE,162,0.0,0.0,89,0.00,CLR,,0.00,WeatherDisplay:10.37,2013-05-10 07:52:00,
2013-05-10 03:57:00,53.4,50.2,29.99,SSE,162,0.0,0.0,89,0.00,CLR,,0.00,WeatherDisplay:10.37,2013-05-10 07:57:00,
2013-05-10 04:02:00,53.0,50.1,29.99,SSE,162,0.0,0.0,90,0.00,CLR,,0.00,WeatherDisplay:10.37,2013-05-10 08:02:00,
2013-05-10 04:07:00,53.2,50.6,29.99,SSE,162,0.0,0.0,91,0.00,CLR,,0.00,WeatherDisplay:10.37,2013-05-10 08:07:00,
2013-05-10 04:12:00,53.0,50.1,29.99,SSE,162,0.0,0.0,90,0.00,CLR,,0.00,WeatherDisplay:10.37,2013-05-10 08:12:00,
2013-05-10 04:17:00,52.5,49.9,29.99,SSE,162,0.0,0.0,91,0.00,CLR,,0.00,WeatherDisplay:10.37,2013-05-10 08:17:00,
2013-05-10 04:22:00,52.4,50.1,29.99,SSE,162,0.0,0.0,92,0.00,CLR,,0.00,WeatherDisplay:10.37,2013-05-10 08:22:00,
2013-05-10 04:27:00,52.2,49.9,29.99,SSE,162,0.0,0.0,92,0.00,CLR,,0.00,WeatherDisplay:10.37,2013-05-10 08:27:00,
2013-05-10 04:32:00,52.2,49.9,29.99,SSE,162,0.0,0.0,92,0.00,CLR,,0.00,WeatherDisplay:10.37,2013-05-10 08:32:00,
2013-05-10 04:37:00,52.2,50.2,29.98,SSE,162,0.0,0.0,93,0.00,CLR,,0.00,WeatherDisplay:10.37,2013-05-10 08:37:00,
2013-05-10 04:42:00,52.2,49.9,29.99,SSE,162,0.0,0.0,92,0.00,CLR,,0.00,WeatherDisplay:10.37,2013-05-10 08:42:00,
2013-05-10 04:47:00,52.1,49.8,29.99,SSE,162,0.0,0.0,92,0.00,CLR,,0.00,WeatherDisplay:10.37,2013-05-10 08:47:00,
2013-05-10 04:52:00,51.9,49.9,29.99,SSE,162,0.0,0.0,93,0.00,CLR,,0.00,WeatherDisplay:10.37,2013-05-10 08:52:00,
2013-05-10 04:57:00,51.7,49.7,29.99,SSE,162,0.0,0.0,93,0.00,CLR,,0.00,WeatherDisplay:10.37,2013-05-10 08:57:00,
2013-05-10 05:02:00,51.5,49.8,29.99,SSE,162,0.0,0.0,94,0.00,CLR,,0.00,WeatherDisplay:10.37,2013-05-10 09:02:00,
2013-05-10 05:07:00,51.4,49.7,29.99,SSE,162,0.0,0.0,94,0.00,CLR,,0.00,WeatherDisplay:10.37,2013-05-10 09:07:00,
2013-05-10 05:12:00,51.3,49.6,29.99,SSE,162,0.0,0.0,94,0.00,CLR,,0.00,WeatherDisplay:10.37,2013-05-10 09:12:00,
2013-05-10 05:17:00,51.4,50.0,29.99,SSE,162,0.0,0.0,95,0.00,CLR,,0.00,WeatherDisplay:10.37,2013-05-10 09:17:00,
2013-05-10 05:22:00,51.7,50.0,29.99,SSE,162,0.0,0.0,94,0.00,CLR,,0.00,WeatherDisplay:10.37,2013-05-10 09:22:00,
2013-05-10 05:27:00,51.7,50.0,29.99,SSE,162,0.0,0.0,94,0.00,CLR,,0.00,WeatherDisplay:10.37,2013-05-10 09:27:00,
2013-05-10 05:32:00,51.8,50.1,29.99,SSE,162,0.0,0.0,94,0.00,CLR,,0.00,WeatherDisplay:10.37,2013-05-10 09:32:00,
2013-05-10 05:37:00,52.1,50.1,29.99,SSE,162,0.0,0.0,93,0.00,CLR,,0.00,WeatherDisplay:10.37,2013-05-10 09:37:00,
2013-05-10 05:42:00,52.3,50.3,29.99,SSE,162,0.0,0.0,93,0.00,CLR,,0.00,WeatherDisplay:10.37,2013-05-10 09:42:00,
2013-05-10 05:47:00,52.4,50.1,29.99,SSW,199,0.0,0.6,92,0.00,CLR,,0.00,WeatherDisplay:10.37,2013-05-10 09:47:00,
2013-05-10 05:52:00,52.8,50.5,29.99,SSW,196,0.0,0.0,92,0.00,CLR,,0.00,WeatherDisplay:10.37,2013-05-10 09:52:00,
2013-05-10 05:57:00,53.3,50.7,29.99,SSE,152,0.0,0.0,91,0.00,CLR,,0.00,WeatherDisplay:10.37,2013-05-10 09:57:00,
2013-05-10 06:02:00,53.6,50.7,29.99,SSE,152,0.0,0.0,90,0.00,CLR,,0.00,WeatherDisplay:10.37,2013-05-10 10:02:00,
2013-05-10 06:07:00,53.9,51.0,29.99,SSE,152,0.0,0.0,90,0.00,CLR,,0.00,WeatherDisplay:10.37,2013-05-10 10:07:00,
2013-05-10 06:12:00,54.1,50.9,29.99,SSE,152,0.0,0.0,89,0.00,CLR,,0.00,WeatherDisplay:10.37,2013-05-10 10:12:00,
2013-05-10 06:17:00,54.3,51.1,29.99,SSE,152,0.0,0.0,89,0.00,CLR,,0.00,WeatherDisplay:10.37,2013-05-10 10:17:00,
2013-05-10 06:23:00,54.0,50.5,29.99,SSE,152,0.0,0.0,88,0.00,CLR,,0.00,WeatherDisplay:10.37,2013-05-10 10:23:00,
2013-05-10 06:28:00,53.5,50.3,29.99,SSE,152,0.0,0.0,89,0.00,CLR,,0.00,WeatherDisplay:10.37,2013-05-10 10:28:00,
2013-05-10 06:33:00,53.1,50.2,29.99,SSE,152,0.0,0.0,90,0.00,CLR,,0.00,WeatherDisplay:10.37,2013-05-10 10:33:00,
2013-05-10 06:38:00,52.8,49.9,29.99,SSE,152,0.0,0.0,90,0.00,CLR,,0.00,WeatherDisplay:10.37,2013-05-10 10:38:00,
2013-05-10 06:43:00,52.6,50.0,29.99,SSE,152,0.0,0.0,91,0.00,CLR,,0.00,WeatherDisplay:10.37,2013-05-10 10:43:00,
2013-05-10 06:48:00,52.6,50.3,29.99,SSE,152,0.0,0.0,92,0.00,CLR,,0.00,WeatherDisplay:10.37,2013-05-10 10:48:00,
2013-05-10 06:53:00,52.9,50.6,29.99,SSE,152,0.0,0.0,92,0.00,CLR,,0.00,WeatherDisplay:10.37,2013-05-10 10:53:00,
2013-05-10 06:58:00,53.2,50.3,29.99,South,182,0.0,0.0,90,0.00,CLR,,0.00,WeatherDisplay:10.37,2013-05-10 10:58:00,
2013-05-10 07:03:00,52.9,50.3,29.99,South,182,0.0,0.0,91,0.00,CLR,,0.00,WeatherDisplay:10.37,2013-05-10 11:03:00,
2013-05-10 07:08:00,52.9,50.3,29.99,South,182,0.0,0.0,91,0.00,CLR,,0.00,WeatherDisplay:10.37,2013-05-10 11:08:00,
2013-05-10 07:13:00,53.2,50.9,29.99,South,182,0.0,0.0,92,0.00,CLR,,0.00,WeatherDisplay:10.37,2013-05-10 11:13:00,
2013-05-10 07:18:00,54.0,51.1,29.99,South,182,0.0,0.0,90,0.00,CLR,,0.00,WeatherDisplay:10.37,2013-05-10 11:18:00,
2013-05-10 07:23:00,54.6,51.4,29.99,South,182,0.0,0.0,89,0.00,CLR,,0.00,WeatherDisplay:10.37,2013-05-10 11:23:00,
2013-05-10 07:28:00,55.1,51.9,29.99,South,182,0.0,0.0,89,0.00,CLR,,0.00,WeatherDisplay:10.37,2013-05-10 11:28:00,
2013-05-10 07:33:00,55.5,52.3,29.99,South,182,0.0,0.0,89,0.00,CLR,,0.00,WeatherDisplay:10.37,2013-05-10 11:33:00,
2013-05-10 07:38:00,55.8,52.3,29.99,South,182,0.0,0.0,88,0.00,CLR,,0.00,WeatherDisplay:10.37,2013-05-10 11:38:00,
2013-05-10 07:43:00,56.2,52.4,29.99,South,182,0.0,0.0,87,0.00,CLR,,0.00,WeatherDisplay:10.37,2013-05-10 11:43:00,
2013-05-10 07:48:00,56.6,52.5,29.99,South,182,0.0,0.0,86,0.00,CLR,,0.00,WeatherDisplay:10.37,2013-05-10 11:48:00,
2013-05-10 07:53:00,57.2,52.7,29.99,South,182,0.0,0.0,85,0.00,CLR,,0.00,WeatherDisplay:10.37,2013-05-10 11:53:00,
2013-05-10 07:58:00,57.7,52.6,29.99,South,182,0.0,0.0,83,0.00,CLR,,0.00,WeatherDisplay:10.37,2013-05-10 11:58:00,
2013-05-10 08:03:00,58.1,53.6,30.00,South,182,0.0,0.0,85,0.00,CLR,,0.00,WeatherDisplay:10.37,2013-05-10 12:03:00,
2013-05-10 08:08:00,58.4,53.9,29.99,South,182,0.0,0.0,85,0.00,CLR,,0.00,WeatherDisplay:10.37,2013-05-10 12:08:00,
2013-05-10 08:13:00,58.6,53.8,30.00,South,182,0.0,0.0,84,0.00,CLR,,0.00,WeatherDisplay:10.37,2013-05-10 12:13:00,
2013-05-10 08:18:00,58.9,53.7,30.00,South,182,0.0,0.0,83,0.00,CLR,,0.00,WeatherDisplay:10.37,2013-05-10 12:18:00,
2013-05-10 08:23:00,59.4,54.2,30.00,South,182,0.0,0.0,83,0.00,CLR,,0.00,WeatherDisplay:10.37,2013-05-10 12:23:00,
2013-05-10 08:28:00,59.8,54.3,30.00,SSE,160,2.3,2.3,82,0.00,CLR,,0.00,WeatherDisplay:10.37,2013-05-10 12:28:00,
2013-05-10 08:33:00,60.3,54.8,30.00,WSW,244,3.5,3.5,82,0.00,CLR,,0.00,WeatherDisplay:10.37,2013-05-10 12:33:00,
2013-05-10 08:38:00,60.8,54.9,29.99,WSW,244,0.0,0.0,81,0.00,CLR,,0.00,WeatherDisplay:10.37,2013-05-10 12:38:00,
2013-05-10 08:43:00,61.3,54.4,29.99,WSW,244,0.0,0.0,78,0.00,CLR,,0.00,WeatherDisplay:10.37,2013-05-10 12:43:00,
2013-05-10 08:48:00,61.6,54.7,29.99,SSW,205,2.3,2.3,78,0.00,CLR,,0.00,WeatherDisplay:10.37,2013-05-10 12:48:00,
2013-05-10 08:53:00,62.1,55.2,29.99,SSW,205,0.0,0.0,78,0.00,CLR,,0.00,WeatherDisplay:10.37,2013-05-10 12:53:00,
2013-05-10 08:58:00,62.5,55.5,30.00,SSW,205,0.0,0.0,78,0.00,CLR,,0.00,WeatherDisplay:10.37,2013-05-10 12:58:00,
2013-05-10 09:03:00,62.9,55.9,29.99,SSW,205,0.0,0.0,78,0.00,CLR,,0.00,WeatherDisplay:10.37,2013-05-10 13:03:00,
2013-05-10 09:08:00,63.1,55.8,29.99,SSW,205,0.0,0.0,77,0.00,CLR,,0.00,WeatherDisplay:10.37,2013-05-10 13:08:00,
2013-05-10 09:13:00,63.3,56.0,29.99,SSW,205,0.0,0.0,77,0.00,CLR,,0.00,WeatherDisplay:10.37,2013-05-10 13:13:00,
2013-05-10 09:18:00,63.4,55.0,30.00,SSW,205,0.0,0.0,74,0.00,CLR,,0.00,WeatherDisplay:10.37,2013-05-10 13:18:00,
2013-05-10 09:23:00,63.4,55.3,30.00,NW,308,1.9,1.9,75,0.00,CLR,,0.00,WeatherDisplay:10.37,2013-05-10 13:23:00,
2013-05-10 09:28:00,63.2,55.5,30.00,NW,308,0.0,0.0,76,0.00,CLR,,0.00,WeatherDisplay:10.37,2013-05-10 13:28:00,
2013-05-10 09:33:00,63.1,55.4,29.99,NNE,13,0.0,0.0,76,0.00,CLR,,0.00,WeatherDisplay:10.37,2013-05-10 13:33:00,
2013-05-10 09:38:00,63.1,54.7,29.99,NNE,13,0.0,0.0,74,0.00,CLR,,0.00,WeatherDisplay:10.37,2013-05-10 13:38:00,
2013-05-10 09:43:00,63.6,55.5,29.99,WSW,241,1.2,1.2,75,0.00,CLR,,0.00,WeatherDisplay:10.37,2013-05-10 13:43:00,
2013-05-10 09:48:00,64.2,54.6,29.99,WNW,291,0.7,0.0,71,0.00,CLR,,0.00,WeatherDisplay:10.37,2013-05-10 13:48:00,
2013-05-10 09:53:00,64.7,55.8,29.99,SSW,196,3.5,3.5,73,0.00,CLR,,0.00,WeatherDisplay:10.37,2013-05-10 13:53:00,
2013-05-10 09:58:00,65.4,56.1,29.99,SSW,208,0.0,0.0,72,0.00,CLR,,0.00,WeatherDisplay:10.37,2013-05-10 13:58:00,
2013-05-10 10:03:00,66.2,56.9,29.99,SSW,208,0.0,0.0,72,0.00,CLR,,0.00,WeatherDisplay:10.37,2013-05-10 14:03:00,
2013-05-10 10:08:00,66.9,56.8,29.99,SW,219,3.5,0.0,70,0.00,CLR,,0.00,WeatherDisplay:10.37,2013-05-10 14:08:00,
2013-05-10 10:13:00,67.5,57.4,29.99,SW,219,0.0,0.0,70,0.00,CLR,,0.00,WeatherDisplay:10.37,2013-05-10 14:13:00,
2013-05-10 10:18:00,67.9,58.1,29.99,SSW,212,3.5,3.5,71,0.00,CLR,,0.00,WeatherDisplay:10.37,2013-05-10 14:18:00,
2013-05-10 10:23:00,68.6,58.0,29.98,SSW,213,5.8,5.8,69,0.00,CLR,,0.00,WeatherDisplay:10.37,2013-05-10 14:23:00,
2013-05-10 10:28:00,69.3,58.3,29.98,WSW,254,0.0,0.0,68,0.00,CLR,,0.00,WeatherDisplay:10.37,2013-05-10 14:28:00,
2013-05-10 10:33:00,69.8,58.3,29.98,WSW,254,0.0,0.0,67,0.00,CLR,,0.00,WeatherDisplay:10.37,2013-05-10 14:33:00,
2013-05-10 10:38:00,70.4,58.1,29.98,WNW,295,1.2,1.2,65,0.00,CLR,,0.00,WeatherDisplay:10.37,2013-05-10 14:38:00,
2013-05-10 10:43:00,70.7,57.9,29.98,NW,318,2.3,2.3,64,0.00,CLR,,0.00,WeatherDisplay:10.37,2013-05-10 14:43:00,
2013-05-10 10:48:00,70.8,58.9,29.98,West,271,1.3,1.3,66,0.00,CLR,,0.00,WeatherDisplay:10.37,2013-05-10 14:48:00,
2013-05-10 10:53:00,71.0,57.8,29.97,NW,308,1.2,1.2,63,0.00,CLR,,0.00,WeatherDisplay:10.37,2013-05-10 14:53:00,
2013-05-10 10:58:00,71.4,57.2,29.97,NW,308,0.0,0.0,61,0.00,CLR,,0.00,WeatherDisplay:10.37,2013-05-10 14:58:00,
2013-05-10 11:03:00,71.9,57.3,29.97,SSE,151,1.2,1.2,60,0.00,CLR,,0.00,WeatherDisplay:10.37,2013-05-10 15:03:00,
2013-05-10 11:08:00,72.2,58.9,29.97,SSW,212,0.0,0.0,63,0.00,CLR,,0.00,WeatherDisplay:10.37,2013-05-10 15:08:00,
2013-05-10 11:13:00,72.8,58.6,29.96,South,181,1.2,1.2,61,0.00,CLR,,0.00,WeatherDisplay:10.37,2013-05-10 15:13:00,
2013-05-10 11:18:00,73.4,58.7,29.96,North,357,0.0,0.2,60,0.00,CLR,,0.00,WeatherDisplay:10.37,2013-05-10 15:18:00,
2013-05-10 11:23:00,74.1,59.8,29.96,North,357,0.0,0.0,61,0.00,CLR,,0.00,WeatherDisplay:10.37,2013-05-10 15:23:00,
2013-05-10 11:28:00,74.6,58.4,29.96,North,357,0.0,0.0,57,0.00,CLR,,0.00,WeatherDisplay:10.37,2013-05-10 15:28:00,
2013-05-10 11:33:00,74.9,58.1,29.96,North,357,0.0,0.0,56,0.00,CLR,,0.00,WeatherDisplay:10.37,2013-05-10 15:33:00,
2013-05-10 11:38:00,75.1,58.8,29.96,WSW,248,5.8,5.8,57,0.00,CLR,,0.00,WeatherDisplay:10.37,2013-05-10 15:38:00,
2013-05-10 11:43:00,75.3,60.0,29.96,WSW,240,1.2,0.0,59,0.00,CLR,,0.00,WeatherDisplay:10.37,2013-05-10 15:43:00,
2013-05-10 11:48:00,75.7,57.4,29.95,SSW,212,8.1,8.1,53,0.00,CLR,,0.00,WeatherDisplay:10.37,2013-05-10 15:48:00,
2013-05-10 11:54:00,76.0,57.6,29.95,SSW,206,4.6,0.0,53,0.00,CLR,,0.00,WeatherDisplay:10.37,2013-05-10 15:54:00,
2013-05-10 11:59:00,76.2,57.3,29.95,West,265,2.3,0.0,52,0.00,CLR,,0.00,WeatherDisplay:10.37,2013-05-10 15:59:00,
2013-05-10 12:04:00,76.1,57.7,29.95,SSW,213,3.5,3.5,53,0.00,CLR,,0.00,WeatherDisplay:10.37,2013-05-10 16:04:00,
2013-05-10 12:09:00,76.2,58.3,29.95,SSW,200,0.0,0.0,54,0.00,CLR,,0.00,WeatherDisplay:10.37,2013-05-10 16:09:00,
2013-05-10 12:14:00,76.8,59.9,29.94,WSW,239,4.6,4.6,56,0.00,CLR,,0.00,WeatherDisplay:10.37,2013-05-10 16:14:00,
2013-05-10 12:19:00,77.1,57.6,29.94,NW,308,4.6,4.6,51,0.00,CLR,,0.00,WeatherDisplay:10.37,2013-05-10 16:19:00,
2013-05-10 12:24:00,77.2,57.7,29.94,South,174,4.6,4.6,51,0.00,CLR,,0.00,WeatherDisplay:10.37,2013-05-10 16:24:00,
2013-05-10 12:29:00,77.0,58.0,29.94,South,185,9.2,9.2,52,0.00,CLR,,0.00,WeatherDisplay:10.37,2013-05-10 16:29:00,
2013-05-10 12:34:00,77.1,59.2,29.93,WNW,302,4.6,4.6,54,0.00,CLR,,0.00,WeatherDisplay:10.37,2013-05-10 16:34:00,
2013-05-10 12:39:00,77.5,58.5,29.93,SSW,199,9.2,9.2,52,0.00,CLR,,0.00,WeatherDisplay:10.37,2013-05-10 16:39:00,
2013-05-10 12:44:00,77.7,59.2,29.93,WSW,246,0.0,0.0,53,0.00,CLR,,0.00,WeatherDisplay:10.37,2013-05-10 16:44:00,
2013-05-10 12:49:00,77.9,57.8,29.93,South,175,9.2,9.2,50,0.00,CLR,,0.00,WeatherDisplay:10.37,2013-05-10 16:49:00,
2013-05-10 12:54:00,77.9,57.8,29.93,SW,217,4.6,4.6,50,0.00,CLR,,0.00,WeatherDisplay:10.37,2013-05-10 16:54:00,
2013-05-10 12:59:00,78.0,58.4,29.93,WNW,284,2.9,2.9,51,0.00,CLR,,0.00,WeatherDisplay:10.37,2013-05-10 16:59:00,
2013-05-10 13:04:00,78.3,58.1,29.93,NNW,333,1.2,1.2,50,0.00,CLR,,0.00,WeatherDisplay:10.37,2013-05-10 17:04:00,
2013-05-10 13:09:00,78.5,57.2,29.93,South,175,6.9,6.9,48,0.00,CLR,,0.00,WeatherDisplay:10.37,2013-05-10 17:09:00,
2013-05-10 13:14:00,78.8,57.4,29.93,South,182,6.9,6.9,48,0.00,CLR,,0.00,WeatherDisplay:10.37,2013-05-10 17:14:00,
2013-05-10 13:19:00,79.0,58.8,29.93,SSE,164,8.1,8.1,50,0.00,CLR,,0.00,WeatherDisplay:10.37,2013-05-10 17:19:00,
2013-05-10 13:24:00,79.4,58.0,29.93,South,189,6.9,6.9,48,0.00,CLR,,0.00,WeatherDisplay:10.37,2013-05-10 17:24:00,
2013-05-10 13:29:00,79.1,57.7,29.92,SW,219,5.8,5.8,48,0.00,CLR,,0.00,WeatherDisplay:10.37,2013-05-10 17:29:00,
2013-05-10 13:34:00,78.7,58.5,29.92,SSW,208,3.0,3.0,50,0.00,CLR,,0.00,WeatherDisplay:10.37,2013-05-10 17:34:00,
2013-05-10 13:39:00,77.8,57.1,29.91,SSW,209,3.5,3.5,49,0.00,CLR,,0.00,WeatherDisplay:10.37,2013-05-10 17:39:00,
2013-05-10 13:44:00,77.1,56.5,29.91,SW,236,1.9,1.9,49,0.00,CLR,,0.00,WeatherDisplay:10.37,2013-05-10 17:44:00,
2013-05-10 13:49:00,77.3,57.2,29.91,WSW,244,4.6,4.6,50,0.00,CLR,,0.00,WeatherDisplay:10.37,2013-05-10 17:49:00,
2013-05-10 13:54:00,77.7,57.6,29.91,SW,224,3.5,3.5,50,0.00,CLR,,0.00,WeatherDisplay:10.37,2013-05-10 17:54:00,
2013-05-10 13:59:00,77.5,56.8,29.91,WSW,248,5.8,5.8,49,0.00,CLR,,0.00,WeatherDisplay:10.37,2013-05-10 17:59:00,
2013-05-10 14:04:00,78.0,57.3,29.90,SSW,213,3.4,3.4,49,0.00,CLR,,0.00,WeatherDisplay:10.37,2013-05-10 18:04:00,
2013-05-10 14:09:00,78.5,55.4,29.90,WNW,285,3.5,3.5,45,0.00,CLR,,0.00,WeatherDisplay:10.37,2013-05-10 18:09:00,
2013-05-10 14:14:00,79.0,57.0,29.89,WSW,253,4.6,4.6,47,0.00,CLR,,0.00,WeatherDisplay:10.37,2013-05-10 18:14:00,
2013-05-10 14:19:00,79.4,56.2,29.89,West,271,4.4,4.4,45,0.00,CLR,,0.00,WeatherDisplay:10.37,2013-05-10 18:19:00,
2013-05-10 14:24:00,79.8,55.9,29.89,WNW,294,9.2,9.2,44,0.00,CLR,,0.00,WeatherDisplay:10.37,2013-05-10 18:24:00,
2013-05-10 14:29:00,80.1,54.9,29.88,South,191,7.1,7.1,42,0.00,CLR,,0.00,WeatherDisplay:10.37,2013-05-10 18:29:00,
2013-05-10 14:34:00,80.2,55.7,29.88,SSW,206,7.1,7.1,43,0.00,CLR,,0.00,WeatherDisplay:10.37,2013-05-10 18:34:00,
2013-05-10 14:39:00,80.0,56.1,29.88,SSW,196,5.1,5.1,44,0.00,CLR,,0.00,WeatherDisplay:10.37,2013-05-10 18:39:00,
2013-05-10 14:44:00,79.7,55.2,29.88,SW,222,6.9,6.9,43,0.00,CLR,,0.00,WeatherDisplay:10.37,2013-05-10 18:44:00,
2013-05-10 14:49:00,79.4,53.6,29.88,WSW,248,9.2,9.2,41,0.00,CLR,,0.00,WeatherDisplay:10.37,2013-05-10 18:49:00,
2013-05-10 14:54:00,78.9,54.5,29.88,SSW,196,9.2,9.2,43,0.00,CLR,,0.00,WeatherDisplay:10.37,2013-05-10 18:54:00,
2013-05-10 14:59:00,78.2,53.9,29.87,South,182,5.8,5.8,43,0.00,CLR,,0.00,WeatherDisplay:10.37,2013-05-10 18:59:00,
2013-05-10 15:04:00,77.8,54.1,29.88,WSW,237,6.9,6.9,44,0.00,CLR,,0.00,WeatherDisplay:10.37,2013-05-10 19:04:00,
2013-05-10 15:09:00,77.2,54.2,29.88,SSE,164,6.9,6.9,45,0.00,CLR,,0.00,WeatherDisplay:10.37,2013-05-10 19:09:00,
2013-05-10 15:14:00,77.0,53.4,29.87,SSW,200,6.9,6.9,44,0.00,CLR,,0.00,WeatherDisplay:10.37,2013-05-10 19:14:00,
2013-05-10 15:19:00,76.9,53.3,29.87,WSW,237,8.1,8.1,44,0.00,CLR,,0.00,WeatherDisplay:10.37,2013-05-10 19:19:00,
2013-05-10 15:24:00,76.9,53.9,29.87,SSW,200,6.9,6.9,45,0.00,CLR,,0.00,WeatherDisplay:10.37,2013-05-10 19:24:00,
2013-05-10 15:29:00,76.7,53.8,29.87,South,185,5.8,5.8,45,0.00,CLR,,0.00,WeatherDisplay:10.37,2013-05-10 19:29:00,
2013-05-10 15:34:00,76.8,54.5,29.87,SSW,198,1.2,0.0,46,0.00,CLR,,0.00,WeatherDisplay:10.37,2013-05-10 19:34:00,
2013-05-10 15:39:00,77.0,55.2,29.86,SW,223,6.1,6.1,47,0.00,CLR,,0.00,WeatherDisplay:10.37,2013-05-10 19:39:00,
2013-05-10 15:44:00,77.5,56.3,29.86,SSW,212,3.9,3.9,48,0.00,CLR,,0.00,WeatherDisplay:10.37,2013-05-10 19:44:00,
2013-05-10 15:49:00,78.1,55.6,29.85,SW,230,9.2,9.2,46,0.00,CLR,,0.00,WeatherDisplay:10.37,2013-05-10 19:49:00,
2013-05-10 15:54:00,78.3,55.2,29.85,South,175,5.8,5.8,45,0.00,CLR,,0.00,WeatherDisplay:10.37,2013-05-10 19:54:00,
2013-05-10 15:59:00,78.1,55.6,29.85,SSW,209,4.6,4.6,46,0.00,CLR,,0.00,WeatherDisplay:10.37,2013-05-10 19:59:00,
2013-05-10 16:04:00,77.7,55.3,29.85,South,174,8.1,8.1,46,0.00,CLR,,0.00,WeatherDisplay:10.37,2013-05-10 20:04:00,
2013-05-10 16:09:00,77.1,54.1,29.85,SSW,198,9.2,9.2,45,0.00,CLR,,0.00,WeatherDisplay:10.37,2013-05-10 20:09:00,
2013-05-10 16:14:00,76.9,54.5,29.85,SSW,202,6.8,6.8,46,0.00,CLR,,0.00,WeatherDisplay:10.37,2013-05-10 20:14:00,
2013-05-10 16:19:00,76.9,55.1,29.85,SSW,209,6.9,6.9,47,0.00,CLR,,0.00,WeatherDisplay:10.37,2013-05-10 20:19:00,
2013-05-10 16:24:00,76.9,55.1,29.85,SSW,196,4.6,4.6,47,0.00,CLR,,0.00,WeatherDisplay:10.37,2013-05-10 20:24:00,
2013-05-10 16:29:00,77.0,54.6,29.85,SSW,196,9.2,9.2,46,0.00,CLR,,0.00,WeatherDisplay:10.37,2013-05-10 20:29:00,
2013-05-10 16:34:00,77.2,55.4,29.85,SW,223,3.5,3.5,47,0.00,CLR,,0.00,WeatherDisplay:10.37,2013-05-10 20:34:00,
2013-05-10 16:39:00,77.4,56.2,29.85,SE,140,4.6,4.6,48,0.00,CLR,,0.00,WeatherDisplay:10.37,2013-05-10 20:39:00,
2013-05-10 16:44:00,77.7,56.4,29.85,SW,230,6.9,6.9,48,0.00,CLR,,0.00,WeatherDisplay:10.37,2013-05-10 20:44:00,
2013-05-10 16:49:00,78.0,56.7,29.85,SW,217,8.1,8.1,48,0.00,CLR,,0.00,WeatherDisplay:10.37,2013-05-10 20:49:00,
2013-05-10 16:54:00,78.0,55.5,29.85,SW,216,6.8,6.8,46,0.00,CLR,,0.00,WeatherDisplay:10.37,2013-05-10 20:54:00,
2013-05-10 16:59:00,77.9,57.2,29.85,SSW,209,5.8,5.8,49,0.00,CLR,,0.00,WeatherDisplay:10.37,2013-05-10 20:59:00,
2013-05-10 17:04:00,77.4,56.7,29.85,SSW,209,6.9,6.9,49,0.00,CLR,,0.00,WeatherDisplay:10.37,2013-05-10 21:04:00,
2013-05-10 17:09:00,77.2,56.6,29.85,South,182,6.9,6.9,49,0.00,CLR,,0.00,WeatherDisplay:10.37,2013-05-10 21:09:00,
2013-05-10 17:15:00,77.0,57.5,29.85,SSW,203,4.6,4.6,51,0.00,CLR,,0.00,WeatherDisplay:10.37,2013-05-10 21:15:00,
2013-05-10 17:20:00,76.9,57.3,29.84,South,190,2.0,8.0,51,0.00,CLR,,0.00,WeatherDisplay:10.37,2013-05-10 21:20:00,
2013-05-10 17:24:00,76.7,57.7,29.84,SSW,203,4.6,4.6,52,0.00,CLR,,0.00,WeatherDisplay:10.37,2013-05-10 21:24:00,
2013-05-10 17:29:00,76.4,57.5,29.84,SSE,157,4.6,4.6,52,0.00,CLR,,0.00,WeatherDisplay:10.37,2013-05-10 21:29:00,
2013-05-10 17:34:00,76.0,57.1,29.84,SSW,195,6.9,6.9,52,0.00,CLR,,0.00,WeatherDisplay:10.37,2013-05-10 21:34:00,
2013-05-10 17:40:00,75.9,58.1,29.84,South,182,6.9,6.9,54,0.00,CLR,,0.00,WeatherDisplay:10.37,2013-05-10 21:40:00,
2013-05-10 17:45:00,75.6,58.8,29.84,WNW,301,1.2,1.2,56,0.00,CLR,,0.00,WeatherDisplay:10.37,2013-05-10 21:45:00,
2013-05-10 17:50:00,74.9,60.1,29.84,South,183,0.0,4.0,60,0.00,CLR,,0.00,WeatherDisplay:10.37,2013-05-10 21:50:00,
2013-05-10 17:55:00,73.8,60.9,29.84,SSW,192,0.0,0.0,64,0.00,CLR,,0.00,WeatherDisplay:10.37,2013-05-10 21:55:00,
2013-05-10 17:58:00,73.4,60.9,29.85,SSW,192,0.0,0.0,65,0.00,CLR,,0.00,WeatherDisplay:10.37,2013-05-10 21:58:00,
2013-05-10 18:03:00,72.5,62.6,29.84,SSW,192,0.0,0.0,71,0.01,RA,,0.01,WeatherDisplay:10.37,2013-05-10 22:03:00,
2013-05-10 18:08:00,71.4,61.5,29.84,SSW,192,0.0,0.0,71,0.01,RA,,0.01,WeatherDisplay:10.37,2013-05-10 22:08:00,
2013-05-10 18:13:00,70.4,63.6,29.85,SSW,192,0.0,0.0,79,0.01,CLR,,0.01,WeatherDisplay:10.37,2013-05-10 22:13:00,
2013-05-10 18:18:00,69.9,62.0,29.85,SSW,192,0.0,0.0,76,0.01,CLR,,0.01,WeatherDisplay:10.37,2013-05-10 22:18:00,
2013-05-10 18:23:00,69.5,61.6,29.85,SSW,192,0.0,0.0,76,0.01,CLR,,0.01,WeatherDisplay:10.37,2013-05-10 22:23:00,
2013-05-10 18:28:00,68.6,63.9,29.85,SSW,192,0.0,0.0,85,0.01,CLR,,0.01,WeatherDisplay:10.37,2013-05-10 22:28:00,
2013-05-10 18:33:00,67.5,60.4,29.85,NW,312,12.7,12.7,78,0.02,RA,,0.02,WeatherDisplay:10.37,2013-05-10 22:33:00,
2013-05-10 18:38:00,66.0,60.3,29.86,NNW,330,3.0,3.0,82,0.03,RA,,0.03,WeatherDisplay:10.37,2013-05-10 22:38:00,
2013-05-10 18:43:00,65.1,60.8,29.88,NNE,27,2.3,0.0,86,0.06,RA,,0.07,WeatherDisplay:10.37,2013-05-10 22:43:00,
2013-05-10 18:48:00,63.2,60.8,29.89,NW,323,0.0,0.0,92,0.17,RA,,0.18,WeatherDisplay:10.37,2013-05-10 22:48:00,
2013-05-10 18:53:00,61.9,58.9,29.89,NW,322,17.3,17.3,90,0.27,RA,,0.27,WeatherDisplay:10.37,2013-05-10 22:53:00,
2013-05-10 18:58:00,61.8,59.1,29.88,North,7,4.6,4.6,91,0.31,RA,,0.32,WeatherDisplay:10.37,2013-05-10 22:58:00,
2013-05-10 19:03:00,61.9,58.9,29.87,NW,319,3.5,3.5,90,0.32,RA,,0.33,WeatherDisplay:10.37,2013-05-10 23:03:00,
2013-05-10 19:08:00,61.9,58.9,29.87,NW,319,0.0,0.0,90,0.33,RA,,0.34,WeatherDisplay:10.37,2013-05-10 23:08:00,
2013-05-10 19:13:00,62.0,59.3,29.87,NW,319,0.0,0.0,91,0.33,RA,,0.34,WeatherDisplay:10.37,2013-05-10 23:13:00,
2013-05-10 19:18:00,61.7,59.4,29.87,NW,319,0.0,0.0,92,0.33,,,0.34,WeatherDisplay:10.37,2013-05-10 23:18:00,
2013-05-10 19:23:00,61.4,59.4,29.88,NW,319,0.0,0.0,93,0.33,CLR,,0.34,WeatherDisplay:10.37,2013-05-10 23:23:00,
2013-05-10 19:28:00,61.1,59.7,29.88,SE,138,2.3,2.3,95,0.33,CLR,,0.34,WeatherDisplay:10.37,2013-05-10 23:28:00,
2013-05-10 19:33:00,60.9,59.5,29.88,SE,138,0.0,0.0,95,0.32,CLR,,0.34,WeatherDisplay:10.37,2013-05-10 23:33:00,
2013-05-10 19:38:00,61.0,59.3,29.88,SE,138,0.0,0.0,94,0.31,CLR,,0.34,WeatherDisplay:10.37,2013-05-10 23:38:00,
2013-05-10 19:43:00,61.0,59.3,29.88,SE,138,0.0,0.0,94,0.28,CLR,,0.34,WeatherDisplay:10.37,2013-05-10 23:43:00,
2013-05-10 19:48:00,61.0,59.3,29.88,SE,138,0.0,0.0,94,0.17,CLR,,0.34,WeatherDisplay:10.37,2013-05-10 23:48:00,
2013-05-10 19:53:00,61.0,59.3,29.88,SE,138,0.0,0.0,94,0.08,RA,,0.35,WeatherDisplay:10.37,2013-05-10 23:53:00,
2013-05-10 19:58:00,61.1,59.4,29.88,SE,138,0.0,0.0,94,0.04,RA,,0.35,WeatherDisplay:10.37,2013-05-10 23:58:00,
2013-05-10 20:03:00,61.0,59.6,29.88,SE,138,0.0,0.0,95,0.02,,,0.35,WeatherDisplay:10.37,2013-05-11 00:03:00,
2013-05-10 20:08:00,61.0,59.6,29.89,SE,138,0.0,0.0,95,0.02,RA,,0.36,WeatherDisplay:10.37,2013-05-11 00:08:00,
2013-05-10 20:13:00,61.1,59.7,29.89,SE,138,0.0,0.0,95,0.02,RA,,0.37,WeatherDisplay:10.37,2013-05-11 00:13:00,
2013-05-10 20:18:00,61.0,59.9,29.90,SE,138,0.0,0.0,96,0.04,RA,,0.38,WeatherDisplay:10.37,2013-05-11 00:18:00,
2013-05-10 20:23:00,61.0,59.9,29.90,SE,138,0.0,0.0,96,0.07,RA,,0.41,WeatherDisplay:10.37,2013-05-11 00:23:00,
2013-05-10 20:29:00,61.0,59.9,29.91,WNW,295,3.5,3.5,96,0.10,RA,,0.45,WeatherDisplay:10.37,2013-05-11 00:29:00,
2013-05-10 20:34:00,60.9,59.5,29.91,NW,311,3.5,3.5,95,0.14,RA,,0.49,WeatherDisplay:10.37,2013-05-11 00:34:00,
2013-05-10 20:39:00,60.9,59.5,29.91,West,277,4.6,4.6,95,0.21,RA,,0.56,WeatherDisplay:10.37,2013-05-11 00:39:00,
2013-05-10 20:44:00,61.0,59.6,29.91,SW,230,0.0,0.0,95,0.25,RA,,0.60,WeatherDisplay:10.37,2013-05-11 00:44:00,
2013-05-10 20:49:00,61.0,59.6,29.91,SW,230,0.0,0.0,95,0.29,RA,,0.63,WeatherDisplay:10.37,2013-05-11 00:49:00,
2013-05-10 20:54:00,61.0,59.6,29.91,SW,230,0.0,0.0,95,0.30,RA,,0.65,WeatherDisplay:10.37,2013-05-11 00:54:00,
2013-05-10 20:59:00,60.9,59.5,29.92,SSE,151,0.0,0.0,95,0.32,RA,,0.67,WeatherDisplay:10.37,2013-05-11 00:59:00,
2013-05-10 21:04:00,60.9,59.5,29.92,South,185,5.8,5.8,95,0.33,RA,,0.68,WeatherDisplay:10.37,2013-05-11 01:04:00,
2013-05-10 21:09:00,61.0,59.6,29.91,SW,220,0.0,0.0,95,0.33,RA,,0.69,WeatherDisplay:10.37,2013-05-11 01:09:00,
2013-05-10 21:14:00,61.0,59.6,29.91,South,175,0.0,0.0,95,0.34,RA,,0.71,WeatherDisplay:10.37,2013-05-11 01:14:00,
2013-05-10 21:19:00,61.1,59.7,29.91,SSE,157,0.0,0.0,95,0.34,RA,,0.72,WeatherDisplay:10.37,2013-05-11 01:19:00,
2013-05-10 21:24:00,61.0,59.6,29.91,SSE,157,0.0,0.0,95,0.32,RA,,0.73,WeatherDisplay:10.37,2013-05-11 01:24:00,
2013-05-10 21:29:00,61.1,59.7,29.90,SSE,165,1.5,1.5,95,0.28,RA,,0.73,WeatherDisplay:10.37,2013-05-11 01:29:00,
2013-05-10 21:34:00,60.9,59.5,29.89,South,174,0.0,0.0,95,0.24,,,0.73,WeatherDisplay:10.37,2013-05-11 01:34:00,
2013-05-10 21:39:00,60.8,59.7,29.89,South,171,2.3,2.3,96,0.17,CLR,,0.73,WeatherDisplay:10.37,2013-05-11 01:39:00,
2013-05-10 21:44:00,60.7,59.6,29.89,South,171,0.0,0.0,96,0.13,CLR,,0.73,WeatherDisplay:10.37,2013-05-11 01:44:00,
2013-05-10 21:49:00,60.8,59.7,29.88,SE,124,0.9,0.0,96,0.10,CLR,,0.73,WeatherDisplay:10.37,2013-05-11 01:49:00,
2013-05-10 21:54:00,60.6,59.5,29.88,SE,124,0.0,0.0,96,0.08,CLR,,0.73,WeatherDisplay:10.37,2013-05-11 01:54:00,
2013-05-10 21:59:00,60.5,59.4,29.89,SE,124,0.0,0.0,96,0.07,RA,,0.74,WeatherDisplay:10.37,2013-05-11 01:59:00,
2013-05-10 22:04:00,60.5,59.4,29.89,SE,124,0.0,0.0,96,0.06,RA,,0.74,WeatherDisplay:10.37,2013-05-11 02:04:00,
2013-05-10 22:09:00,60.5,59.4,29.88,SE,124,0.0,0.0,96,0.05,,,0.74,WeatherDisplay:10.37,2013-05-11 02:09:00,
2013-05-10 22:14:00,60.6,59.5,29.89,SE,124,0.0,0.0,96,0.03,CLR,,0.74,WeatherDisplay:10.37,2013-05-11 02:14:00,
2013-05-10 22:19:00,60.5,59.4,29.89,SE,124,0.0,0.0,96,0.02,CLR,,0.74,WeatherDisplay:10.37,2013-05-11 02:19:00,
2013-05-10 22:24:00,60.4,59.3,29.89,SE,124,0.0,0.0,96,0.01,CLR,,0.74,WeatherDisplay:10.37,2013-05-11 02:24:00,
2013-05-10 22:29:00,60.4,59.3,29.88,SE,124,0.0,0.0,96,0.01,CLR,,0.74,WeatherDisplay:10.37,2013-05-11 02:29:00,
2013-05-10 22:34:00,60.4,59.3,29.89,SE,124,0.0,0.0,96,0.01,CLR,,0.74,WeatherDisplay:10.37,2013-05-11 02:34:00,
2013-05-10 22:39:00,60.4,59.3,29.88,SE,124,0.0,0.0,96,0.01,CLR,,0.74,WeatherDisplay:10.37,2013-05-11 02:39:00,
2013-05-10 22:44:00,60.3,59.2,29.88,SE,124,0.0,0.0,96,0.01,CLR,,0.74,WeatherDisplay:10.37,2013-05-11 02:44:00,
2013-05-10 22:49:00,60.3,59.2,29.88,SE,124,0.0,0.0,96,0.01,CLR,,0.74,WeatherDisplay:10.37,2013-05-11 02:49:00,
2013-05-10 22:54:00,60.2,59.1,29.88,SE,124,0.0,0.0,96,0.01,CLR,,0.74,WeatherDisplay:10.37,2013-05-11 02:54:00,
2013-05-10 22:59:00,60.2,59.1,29.87,SE,124,0.0,0.0,96,0.00,CLR,,0.74,WeatherDisplay:10.37,2013-05-11 02:59:00,
2013-05-10 23:04:00,60.4,59.3,29.86,South,191,6.8,6.8,96,0.00,CLR,,0.74,WeatherDisplay:10.37,2013-05-11 03:04:00,
2013-05-10 23:09:00,60.4,59.3,29.86,SSW,205,2.5,2.5,96,0.00,CLR,,0.74,WeatherDisplay:10.37,2013-05-11 03:09:00,
2013-05-10 23:14:00,60.5,59.4,29.86,South,172,0.0,0.0,96,0.00,CLR,,0.74,WeatherDisplay:10.37,2013-05-11 03:14:00,
2013-05-10 23:19:00,60.4,59.3,29.86,South,172,2.3,2.3,96,0.00,CLR,,0.74,WeatherDisplay:10.37,2013-05-11 03:19:00,
2013-05-10 23:24:00,60.4,59.3,29.86,SW,222,2.3,2.3,96,0.00,CLR,,0.74,WeatherDisplay:10.37,2013-05-11 03:24:00,
2013-05-10 23:29:00,60.4,59.3,29.86,SSW,212,0.0,0.0,96,0.00,CLR,,0.74,WeatherDisplay:10.37,2013-05-11 03:29:00,
2013-05-10 23:34:00,60.3,59.2,29.86,SSE,155,0.0,0.1,96,0.00,CLR,,0.74,WeatherDisplay:10.37,2013-05-11 03:34:00,
2013-05-10 23:39:00,60.3,59.2,29.86,SSW,195,2.3,2.3,96,0.00,CLR,,0.74,WeatherDisplay:10.37,2013-05-11 03:39:00,
2013-05-10 23:44:00,60.3,58.9,29.85,SE,136,3.5,0.0,95,0.00,CLR,,0.74,WeatherDisplay:10.37,2013-05-11 03:44:00,
2013-05-10 23:49:00,60.2,58.8,29.85,SW,224,0.0,0.0,95,0.00,CLR,,0.74,WeatherDisplay:10.37,2013-05-11 03:49:00,
2013-05-10 23:54:00,60.2,58.8,29.85,South,176,1.2,1.2,95,0.00,CLR,,0.74,WeatherDisplay:10.37,2013-05-11 03:54:00,
2013-05-10 23:59:00,60.1,58.7,29.85,SSE,152,2.3,0.0,95,0.00,CLR,,0.74,WeatherDisplay:10.37,2013-05-11 03:59:00,